Time;durP1;ratioP1;P1;durP2;ratioP2;P2;SDS_P1;SDS_P2;PMS_P1;PMS_P2;Temp;Humidity;BMP_temperature;BMP_pressure;BME280_temperature;BME280_humidity;BME280_pressure;Samples;Min_cycle;Max_cycle;Signal;HPM_P1;HPM_P2
2021/04/03 00:00:39;;;;;;;10.27;5.80;;;10.20;93.70;;;;;;5074447;28;20564;-72
2021/04/03 00:03:07;;;;;;;9.70;4.83;;;10.00;94.60;;;;;;5074068;28;20400;-71
2021/04/03 00:05:34;;;;;;;8.00;4.97;;;9.90;94.70;;;;;;5054288;28;20483;-71
2021/04/03 00:08:00;;;;;;;7.50;4.37;;;9.90;94.60;;;;;;5067513;28;20411;-71
2021/04/03 00:10:36;;;;;;;5.43;4.00;;;9.70;94.20;;;;;;5074350;28;20410;-71
2021/04/03 00:13:02;;;;;;;8.03;4.53;;;9.70;94.30;;;;;;5073534;28;20457;-71
2021/04/03 00:15:28;;;;;;;6.87;3.73;;;9.60;94.70;;;;;;5074137;28;20466;-71
2021/04/03 00:17:54;;;;;;;8.40;4.13;;;9.30;94.40;;;;;;5073324;28;20428;-71
2021/04/03 00:20:23;;;;;;;6.77;3.80;;;9.30;94.50;;;;;;5074696;28;20456;-71
2021/04/03 00:22:49;;;;;;;5.10;3.70;;;9.30;93.80;;;;;;5074412;28;20184;-72
2021/04/03 00:25:15;;;;;;;9.13;4.10;;;9.20;93.50;;;;;;5073942;28;20415;-70
2021/04/03 00:27:44;;;;;;;13.40;5.07;;;9.20;93.80;;;;;;5072887;28;20234;-72
2021/04/03 00:30:15;;;;;;;7.90;3.40;;;9.10;93.90;;;;;;5072604;28;20386;-71
2021/04/03 00:32:45;;;;;;;6.30;3.93;;;9.00;94.30;;;;;;5072112;28;20382;-72
2021/04/03 00:35:12;;;;;;;4.67;3.50;;;9.00;94.10;;;;;;5072591;28;20466;-71
2021/04/03 00:37:39;;;;;;;12.50;4.50;;;9.10;94.30;;;;;;5072223;28;20411;-71
2021/04/03 00:40:29;;;;;;;5.10;3.80;;;9.00;94.40;;;;;;5071909;28;20459;-71
2021/04/03 00:42:56;;;;;;;7.00;4.27;;;9.10;94.50;;;;;;5067464;28;20813;-71
2021/04/03 00:45:23;;;;;;;6.13;3.50;;;9.10;94.50;;;;;;5072102;28;20398;-71
2021/04/03 00:47:50;;;;;;;7.60;3.67;;;9.10;94.40;;;;;;5071189;28;20431;-71
2021/04/03 00:50:20;;;;;;;5.20;3.50;;;9.20;94.40;;;;;;5072366;28;20480;-71
2021/04/03 00:52:46;;;;;;;7.07;4.03;;;9.20;94.10;;;;;;5069067;28;20893;-71
2021/04/03 00:55:12;;;;;;;5.60;3.80;;;9.30;94.10;;;;;;5073463;28;20465;-71
2021/04/03 00:57:39;;;;;;;9.23;4.60;;;9.30;94.30;;;;;;5073679;28;20454;-70
2021/04/03 01:00:07;;;;;;;7.33;4.50;;;9.30;94.10;;;;;;5071541;28;20419;-71
2021/04/03 01:02:32;;;;;;;6.00;3.80;;;9.30;94.40;;;;;;5073351;28;20419;-71
2021/04/03 01:05:00;;;;;;;5.97;3.43;;;9.30;94.60;;;;;;5072092;28;20427;-71
2021/04/03 01:07:26;;;;;;;10.90;4.73;;;9.30;94.80;;;;;;5073058;28;20203;-71
2021/04/03 01:09:51;;;;;;;7.80;3.90;;;9.20;95.10;;;;;;5072352;28;20411;-71
2021/04/03 01:12:29;;;;;;;11.57;4.33;;;9.20;95.30;;;;;;5073131;28;20199;-71
2021/04/03 01:15:02;;;;;;;9.53;4.80;;;9.10;95.40;;;;;;5072206;28;20528;-71
2021/04/03 01:18:09;;;;;;;8.20;4.33;;;9.10;95.70;;;;;;5073134;28;20373;-71
2021/04/03 01:20:48;;;;;;;11.83;5.80;;;9.10;95.70;;;;;;5071353;28;20426;-71
2021/04/03 01:23:35;;;;;;;8.73;4.40;;;9.00;95.80;;;;;;5073162;28;20415;-71
2021/04/03 01:26:28;;;;;;;9.50;3.80;;;9.00;96.10;;;;;;5072078;28;20498;-71
2021/04/03 01:29:25;;;;;;;9.70;4.00;;;9.00;96.10;;;;;;5070774;28;20415;-71
2021/04/03 01:31:52;;;;;;;7.20;4.60;;;9.00;96.30;;;;;;5070927;28;20395;-71
2021/04/03 01:34:22;;;;;;;6.50;4.13;;;9.00;96.20;;;;;;5072532;28;20797;-71
2021/04/03 01:36:49;;;;;;;8.20;5.10;;;9.00;96.50;;;;;;5071378;28;20403;-71
2021/04/03 01:39:18;;;;;;;8.63;5.90;;;9.00;96.10;;;;;;5072675;28;20426;-71
2021/04/03 01:41:47;;;;;;;10.90;5.03;;;8.80;96.20;;;;;;5071819;28;20402;-72
2021/04/03 01:44:18;;;;;;;9.03;4.17;;;8.70;96.00;;;;;;5072723;28;20438;-71
2021/04/03 01:46:47;;;;;;;8.10;4.20;;;8.80;95.60;;;;;;5072363;28;20502;-72
2021/04/03 01:49:15;;;;;;;6.47;3.33;;;8.90;95.10;;;;;;5072261;28;20422;-71
2021/04/03 01:51:46;;;;;;;5.43;3.17;;;8.80;94.80;;;;;;5072528;28;20886;-71
2021/04/03 01:54:14;;;;;;;8.80;3.97;;;8.70;95.30;;;;;;5071259;28;20814;-71
2021/04/03 01:56:42;;;;;;;8.30;3.70;;;8.80;94.60;;;;;;5072472;28;20498;-71
2021/04/03 01:59:12;;;;;;;12.90;3.70;;;8.90;94.00;;;;;;5071548;28;20399;-71
2021/04/03 02:01:40;;;;;;;9.23;4.17;;;8.90;94.20;;;;;;5072052;28;20419;-71
2021/04/03 02:04:08;;;;;;;10.73;4.03;;;8.90;93.90;;;;;;5071452;28;20406;-71
2021/04/03 02:06:35;;;;;;;6.30;4.07;;;8.90;93.50;;;;;;5072342;28;20425;-71
2021/04/03 02:09:03;;;;;;;7.43;3.40;;;9.00;93.50;;;;;;5071261;28;20385;-71
2021/04/03 02:11:33;;;;;;;6.67;4.00;;;9.00;93.60;;;;;;5072203;28;20733;-71
2021/04/03 02:14:00;;;;;;;10.63;3.57;;;9.00;93.70;;;;;;5071372;28;20455;-71
2021/04/03 02:16:28;;;;;;;8.17;4.20;;;9.00;93.90;;;;;;5072040;28;20413;-71
2021/04/03 02:18:56;;;;;;;6.20;3.50;;;9.00;93.70;;;;;;5071380;28;20822;-71
2021/04/03 02:21:22;;;;;;;12.63;4.13;;;9.00;93.90;;;;;;5071938;28;20489;-71
2021/04/03 02:23:49;;;;;;;9.80;4.20;;;9.10;94.20;;;;;;5071550;28;20408;-72
2021/04/03 02:26:17;;;;;;;8.60;3.73;;;9.10;94.40;;;;;;5072235;28;20399;-71
2021/04/03 02:28:43;;;;;;;9.00;4.60;;;9.20;94.20;;;;;;5071802;28;20723;-71
2021/04/03 02:31:09;;;;;;;4.13;3.40;;;9.20;94.20;;;;;;5071280;28;20461;-71
2021/04/03 02:33:34;;;;;;;7.17;3.80;;;9.20;94.00;;;;;;5072190;28;20262;-71
2021/04/03 02:36:00;;;;;;;10.33;3.90;;;9.20;94.10;;;;;;5071119;28;20676;-71
2021/04/03 02:38:27;;;;;;;11.90;4.57;;;9.20;94.40;;;;;;5072103;28;20212;-71
2021/04/03 02:40:52;;;;;;;12.97;4.27;;;9.20;94.10;;;;;;5070900;28;20188;-72
2021/04/03 02:43:29;;;;;;;11.73;4.47;;;9.20;94.00;;;;;;5071956;28;20403;-71
2021/04/03 02:46:06;;;;;;;9.40;4.50;;;9.20;93.80;;;;;;5071312;28;20624;-71
2021/04/03 02:48:36;;;;;;;4.90;3.37;;;9.20;93.60;;;;;;5073049;28;20400;-71
2021/04/03 02:51:02;;;;;;;6.67;3.80;;;9.20;93.40;;;;;;5074924;28;20794;-71
2021/04/03 02:53:31;;;;;;;12.37;4.13;;;9.20;93.20;;;;;;5075858;28;20481;-71
2021/04/03 02:56:01;;;;;;;12.50;3.83;;;9.20;93.40;;;;;;5074923;28;20804;-71
2021/04/03 02:58:31;;;;;;;10.47;4.27;;;9.20;93.40;;;;;;5075763;28;20494;-71
2021/04/03 03:00:58;;;;;;;10.40;4.30;;;9.20;93.00;;;;;;5074633;28;20403;-71
2021/04/03 03:03:25;;;;;;;5.13;3.23;;;9.20;92.80;;;;;;5075717;28;20786;-71
2021/04/03 03:05:56;;;;;;;6.10;4.03;;;9.20;92.90;;;;;;5075005;28;20399;-72
2021/04/03 03:08:22;;;;;;;9.00;4.13;;;9.10;92.60;;;;;;5075761;28;20456;-71
2021/04/03 03:10:50;;;;;;;7.83;3.90;;;9.20;92.50;;;;;;5075345;28;20750;-72
2021/04/03 03:13:18;;;;;;;8.13;3.80;;;9.20;92.30;;;;;;5075258;28;20482;-71
2021/04/03 03:15:44;;;;;;;7.93;3.90;;;9.20;92.60;;;;;;5074067;28;20580;-71
2021/04/03 03:18:10;;;;;;;8.57;4.30;;;9.20;92.80;;;;;;5074558;28;20502;-71
2021/04/03 03:20:37;;;;;;;10.03;3.60;;;9.20;92.90;;;;;;5075367;28;20410;-71
2021/04/03 03:23:04;;;;;;;7.90;4.10;;;9.20;92.40;;;;;;5074567;28;20495;-71
2021/04/03 03:25:30;;;;;;;12.93;4.60;;;9.20;92.10;;;;;;5075261;28;20415;-71
2021/04/03 03:27:57;;;;;;;8.63;4.40;;;9.20;92.50;;;;;;5074440;28;20411;-71
2021/04/03 03:30:25;;;;;;;5.53;3.77;;;9.20;93.00;;;;;;5075165;28;20472;-71
2021/04/03 03:32:51;;;;;;;6.63;4.10;;;9.20;92.50;;;;;;5074101;28;20494;-73
2021/04/03 03:35:18;;;;;;;6.53;4.13;;;9.20;92.00;;;;;;5075064;28;20498;-71
2021/04/03 03:37:45;;;;;;;11.23;3.97;;;9.20;91.70;;;;;;5074953;28;20434;-71
2021/04/03 03:40:13;;;;;;;12.17;4.00;;;9.20;92.10;;;;;;5073864;28;20468;-71
2021/04/03 03:42:39;;;;;;;9.17;4.50;;;9.20;92.50;;;;;;5074961;28;20429;-71
2021/04/03 03:45:07;;;;;;;9.83;4.60;;;9.20;92.70;;;;;;5073679;28;20473;-71
2021/04/03 03:47:32;;;;;;;6.60;3.70;;;9.10;92.60;;;;;;5073472;28;20851;-71
2021/04/03 03:49:58;;;;;;;8.90;3.80;;;9.10;92.70;;;;;;5073976;28;20432;-71
2021/04/03 03:52:24;;;;;;;11.13;4.00;;;9.10;92.50;;;;;;5074978;28;20636;-71
2021/04/03 03:54:50;;;;;;;7.47;4.30;;;9.10;92.60;;;;;;5074154;28;20197;-71
2021/04/03 03:57:15;;;;;;;7.23;4.40;;;9.10;92.70;;;;;;5074108;28;20177;-71
2021/04/03 03:59:41;;;;;;;7.87;3.43;;;9.00;92.90;;;;;;5074153;28;20605;-71
2021/04/03 04:02:07;;;;;;;5.10;3.67;;;9.10;92.70;;;;;;5073609;28;20759;-71
2021/04/03 04:04:33;;;;;;;5.40;3.20;;;9.00;92.60;;;;;;5074545;28;20177;-71
2021/04/03 04:06:59;;;;;;;6.90;3.23;;;9.00;92.60;;;;;;5072531;28;20415;-71
2021/04/03 04:09:25;;;;;;;5.83;3.40;;;9.00;92.70;;;;;;5074006;28;20204;-71
2021/04/03 04:11:51;;;;;;;7.93;3.80;;;9.00;92.70;;;;;;5074260;28;20189;-72
2021/04/03 04:14:17;;;;;;;6.70;3.30;;;9.10;92.70;;;;;;5073438;28;20442;-71
2021/04/03 04:16:43;;;;;;;7.80;4.10;;;9.10;92.50;;;;;;5074207;28;20251;-71
2021/04/03 04:19:10;;;;;;;5.73;3.47;;;9.10;92.50;;;;;;5073399;28;20180;-71
2021/04/03 04:21:35;;;;;;;11.60;4.10;;;9.10;92.30;;;;;;5072805;28;20404;-71
2021/04/03 04:24:01;;;;;;;10.00;4.33;;;9.10;92.10;;;;;;5073401;28;20893;-71
2021/04/03 04:26:27;;;;;;;6.00;3.90;;;9.10;91.90;;;;;;5073847;28;20643;-71
2021/04/03 04:28:53;;;;;;;11.83;4.13;;;9.10;91.90;;;;;;5073838;28;20183;-72
2021/04/03 04:31:19;;;;;;;6.60;3.73;;;9.10;91.80;;;;;;5073058;28;20216;-71
2021/04/03 04:33:44;;;;;;;14.87;4.10;;;9.10;91.90;;;;;;5073644;28;20223;-71
2021/04/03 04:36:10;;;;;;;12.13;4.00;;;9.10;91.90;;;;;;5073038;28;20180;-71
2021/04/03 04:38:36;;;;;;;7.57;3.70;;;9.10;91.90;;;;;;5073971;28;20355;-71
2021/04/03 04:41:02;;;;;;;11.43;3.77;;;9.10;92.10;;;;;;5073074;28;20244;-71
2021/04/03 04:43:27;;;;;;;8.67;4.13;;;9.10;92.40;;;;;;5072574;28;20181;-71
2021/04/03 04:45:53;;;;;;;9.43;4.13;;;9.10;92.50;;;;;;5072087;28;20419;-72
2021/04/03 04:48:19;;;;;;;9.87;4.07;;;9.00;92.60;;;;;;5072943;28;20223;-71
2021/04/03 04:50:45;;;;;;;8.97;4.57;;;9.00;92.70;;;;;;5073394;28;20742;-71
2021/04/03 04:53:11;;;;;;;4.50;4.07;;;9.00;92.80;;;;;;5072812;28;20180;-71
2021/04/03 04:55:36;;;;;;;10.80;4.57;;;9.00;92.80;;;;;;5073485;28;20204;-71
2021/04/03 04:58:02;;;;;;;10.20;4.80;;;8.90;93.00;;;;;;5072722;28;20640;-71
2021/04/03 05:00:28;;;;;;;9.70;4.10;;;8.90;93.00;;;;;;5073192;28;20514;-71
2021/04/03 05:02:54;;;;;;;16.67;4.60;;;8.90;93.20;;;;;;5073323;28;20413;-72
2021/04/03 05:05:20;;;;;;;9.50;4.50;;;8.80;93.10;;;;;;5072827;28;20415;-71
2021/04/03 05:07:46;;;;;;;8.63;4.00;;;8.90;93.00;;;;;;5072067;28;20411;-71
2021/04/03 05:10:12;;;;;;;5.43;4.33;;;8.90;93.00;;;;;;5072040;28;20177;-71
2021/04/03 05:12:38;;;;;;;7.23;3.70;;;8.80;93.00;;;;;;5072554;28;20248;-71
2021/04/03 05:15:05;;;;;;;6.20;3.70;;;8.80;92.80;;;;;;5072198;28;20533;-71
2021/04/03 05:17:31;;;;;;;8.10;4.00;;;8.90;92.80;;;;;;5072948;28;20423;-71
2021/04/03 05:19:56;;;;;;;12.57;4.20;;;8.90;92.60;;;;;;5072669;28;20407;-72
2021/04/03 05:22:22;;;;;;;6.53;5.07;;;8.90;92.60;;;;;;5072672;28;20177;-71
2021/04/03 05:24:48;;;;;;;8.07;4.93;;;8.90;92.60;;;;;;5072967;28;20177;-71
2021/04/03 05:27:14;;;;;;;8.10;4.70;;;8.90;92.40;;;;;;5071886;28;20212;-71
2021/04/03 05:29:39;;;;;;;6.40;4.00;;;8.90;92.50;;;;;;5072637;28;20632;-71
2021/04/03 05:32:06;;;;;;;13.37;4.57;;;8.80;92.70;;;;;;5071709;28;20180;-71
2021/04/03 05:34:32;;;;;;;10.00;3.87;;;8.80;92.90;;;;;;5072882;28;20231;-71
2021/04/03 05:36:58;;;;;;;6.90;4.20;;;8.80;92.90;;;;;;5072398;28;20435;-72
2021/04/03 05:39:23;;;;;;;8.33;4.23;;;8.80;92.80;;;;;;5072386;28;20434;-71
2021/04/03 05:41:49;;;;;;;8.57;4.37;;;8.90;92.70;;;;;;5072698;28;20195;-71
2021/04/03 05:44:15;;;;;;;9.90;4.30;;;8.80;92.60;;;;;;5071801;28;20204;-71
2021/04/03 05:46:43;;;;;;;13.07;5.20;;;8.90;92.40;;;;;;5071990;28;20231;-71
2021/04/03 05:49:09;;;;;;;6.60;3.93;;;8.90;92.50;;;;;;5071468;28;20529;-72
2021/04/03 05:51:35;;;;;;;10.20;3.80;;;8.80;92.40;;;;;;5072485;28;20500;-71
2021/04/03 05:54:02;;;;;;;6.67;3.63;;;8.90;92.50;;;;;;5071098;28;20407;-73
2021/04/03 05:56:29;;;;;;;7.33;4.20;;;8.80;92.30;;;;;;5071230;28;20407;-71
2021/04/03 05:58:58;;;;;;;6.20;3.43;;;8.80;92.30;;;;;;5072415;28;20396;-71
2021/04/03 06:01:24;;;;;;;10.03;4.17;;;8.80;92.30;;;;;;5073437;28;20508;-72
2021/04/03 06:03:50;;;;;;;9.60;4.07;;;8.90;92.20;;;;;;5066580;28;20520;-72
2021/04/03 06:06:16;;;;;;;7.13;3.80;;;8.90;92.30;;;;;;5070627;28;20382;-72
2021/04/03 06:08:42;;;;;;;8.93;4.60;;;8.90;92.30;;;;;;5071473;28;20249;-72
2021/04/03 06:11:11;;;;;;;8.17;4.50;;;8.90;92.10;;;;;;5069790;28;20419;-72
2021/04/03 06:13:38;;;;;;;12.90;4.87;;;8.90;92.20;;;;;;5070800;28;20408;-71
2021/04/03 06:16:23;;;;;;;9.73;4.37;;;8.90;92.40;;;;;;5069995;28;20497;-72
2021/04/03 06:18:48;;;;;;;10.70;4.27;;;8.90;92.60;;;;;;5070995;28;20407;-71
2021/04/03 06:21:14;;;;;;;8.63;4.47;;;8.90;92.50;;;;;;5070029;28;20441;-71
2021/04/03 06:23:40;;;;;;;11.27;4.03;;;8.90;92.50;;;;;;5070807;28;20176;-71
2021/04/03 06:26:06;;;;;;;8.83;4.60;;;8.90;92.80;;;;;;5069932;28;20893;-72
2021/04/03 06:28:33;;;;;;;14.60;4.83;;;8.90;92.90;;;;;;5071344;28;20177;-72
2021/04/03 06:31:12;;;;;;;5.10;4.30;;;8.80;93.00;;;;;;5071427;28;20400;-72
2021/04/03 06:33:38;;;;;;;11.40;4.40;;;8.90;93.00;;;;;;5071334;28;20473;-72
2021/04/03 06:36:09;;;;;;;13.60;4.77;;;8.90;93.00;;;;;;5070754;28;20893;-72
2021/04/03 06:38:36;;;;;;;9.77;6.43;;;8.90;93.10;;;;;;5071684;28;20816;-71
2021/04/03 06:41:18;;;;;;;10.93;4.70;;;8.90;93.30;;;;;;5071062;28;20407;-72
2021/04/03 06:43:59;;;;;;;8.27;4.30;;;9.00;93.30;;;;;;5071990;28;20423;-71
2021/04/03 06:46:25;;;;;;;10.50;4.30;;;9.10;92.90;;;;;;5071612;28;20456;-71
2021/04/03 06:48:52;;;;;;;14.53;4.97;;;9.10;93.00;;;;;;5070604;28;20422;-70
2021/04/03 06:51:22;;;;;;;8.60;5.13;;;9.20;93.40;;;;;;5069131;28;20945;-70
2021/04/03 06:53:49;;;;;;;9.70;4.30;;;9.20;93.20;;;;;;5070418;28;20423;-70
2021/04/03 06:56:20;;;;;;;14.30;5.13;;;9.30;93.00;;;;;;5069908;28;20913;-70
2021/04/03 06:58:47;;;;;;;9.03;4.77;;;9.30;92.60;;;;;;5071544;28;20876;-71
2021/04/03 07:01:20;;;;;;;13.27;5.60;;;9.40;92.40;;;;;;5069718;28;20476;-70
2021/04/03 07:03:55;;;;;;;16.67;5.13;;;9.50;92.60;;;;;;5071216;28;20620;-70
2021/04/03 07:06:24;;;;;;;11.57;5.20;;;9.50;91.90;;;;;;5070935;28;20387;-70
2021/04/03 07:08:51;;;;;;;16.47;5.47;;;9.60;91.70;;;;;;5072171;28;20422;-70
2021/04/03 07:11:18;;;;;;;9.00;5.17;;;9.70;91.50;;;;;;5069611;28;20453;-70
2021/04/03 07:13:44;;;;;;;10.03;3.87;;;9.70;91.20;;;;;;5071624;28;20434;-70
2021/04/03 07:16:11;;;;;;;8.87;4.70;;;9.70;90.80;;;;;;5070454;28;20489;-70
2021/04/03 07:18:39;;;;;;;11.03;4.60;;;9.70;90.90;;;;;;5071066;28;20424;-70
2021/04/03 07:21:08;;;;;;;11.37;5.20;;;9.70;90.40;;;;;;5070429;28;20462;-72
2021/04/03 07:23:38;;;;;;;10.70;4.67;;;9.80;90.70;;;;;;5070780;28;20452;-70
2021/04/03 07:26:06;;;;;;;13.70;4.90;;;9.90;90.80;;;;;;5070605;28;20836;-72
2021/04/03 07:28:40;;;;;;;11.60;5.57;;;9.90;90.70;;;;;;5071002;28;20415;-70
2021/04/03 07:31:07;;;;;;;16.40;5.40;;;10.00;90.10;;;;;;5069012;28;20441;-72
2021/04/03 07:33:33;;;;;;;11.57;5.10;;;10.00;89.70;;;;;;5069103;28;20455;-69
2021/04/03 07:36:05;;;;;;;379.33;201.77;;;10.00;88.50;;;;;;5074090;28;20450;-70
2021/04/03 07:38:35;;;;;;;44.83;12.60;;;10.00;88.90;;;;;;5064265;28;20415;-70
2021/04/03 07:41:03;;;;;;;14.37;5.33;;;10.00;89.00;;;;;;5074639;28;20408;-69
2021/04/03 07:43:29;;;;;;;12.57;5.30;;;10.00;89.20;;;;;;5074440;28;20625;-69
2021/04/03 07:45:56;;;;;;;10.00;5.10;;;10.00;89.60;;;;;;5074101;28;20516;-69
2021/04/03 07:48:51;;;;;;;8.00;5.10;;;10.00;88.20;;;;;;5073310;28;21290;-70
2021/04/03 07:51:22;;;;;;;13.83;6.67;;;10.00;89.50;;;;;;5073663;28;20474;-71
2021/04/03 07:53:56;;;;;;;13.93;5.97;;;10.00;90.10;;;;;;5106433;28;20423;-71
2021/04/03 07:56:48;;;;;;;11.93;5.50;;;10.30;91.80;;;;;;5072749;28;20508;-71
2021/04/03 07:59:14;;;;;;;16.13;5.43;;;11.00;91.60;;;;;;5072567;28;20433;-70
2021/04/03 08:01:40;;;;;;;16.07;5.50;;;11.50;89.70;;;;;;5073610;28;20410;-71
2021/04/03 08:04:08;;;;;;;9.63;4.40;;;12.10;86.10;;;;;;5073739;28;20424;-74
2021/04/03 08:06:35;;;;;;;10.33;5.07;;;12.60;86.50;;;;;;5073496;28;20775;-72
2021/04/03 08:09:05;;;;;;;10.33;4.83;;;13.10;81.70;;;;;;5074445;28;20805;-71
2021/04/03 08:11:33;;;;;;;12.50;5.47;;;13.50;80.80;;;;;;5074172;28;20384;-71
2021/04/03 08:14:00;;;;;;;10.20;5.23;;;13.90;78.30;;;;;;5073909;28;20407;-71
2021/04/03 08:16:28;;;;;;;9.93;5.60;;;14.30;74.90;;;;;;5073232;28;20242;-71
2021/04/03 08:18:55;;;;;;;8.97;4.70;;;14.50;71.80;;;;;;5074425;28;20432;-71
2021/04/03 08:21:22;;;;;;;9.33;5.00;;;14.60;71.40;;;;;;5071531;28;20432;-71
2021/04/03 08:23:57;;;;;;;17.17;5.45;;;14.80;69.80;;;;;;5073549;28;20414;-70
2021/04/03 08:26:25;;;;;;;13.33;5.77;;;15.00;70.70;;;;;;5072932;28;20246;-72
2021/04/03 08:28:52;;;;;;;8.80;5.07;;;14.90;67.80;;;;;;5073681;28;20418;-71
2021/04/03 08:31:18;;;;;;;9.90;5.50;;;14.70;66.40;;;;;;5072962;28;20454;-70
2021/04/03 08:33:45;;;;;;;10.97;5.63;;;14.30;68.40;;;;;;5073901;28;20932;-70
2021/04/03 08:36:17;;;;;;;11.03;6.70;;;14.00;68.80;;;;;;5072544;28;20222;-71
2021/04/03 08:38:44;;;;;;;10.00;5.37;;;13.70;69.20;;;;;;5079139;28;20496;-71
2021/04/03 08:41:15;;;;;;;10.23;5.10;;;13.50;70.80;;;;;;5075292;28;20839;-72
2021/04/03 08:43:41;;;;;;;419.40;242.13;;;13.30;71.00;;;;;;5073362;28;20406;-71
2021/04/03 08:46:11;;;;;;;94.00;60.67;;;13.20;72.30;;;;;;5079017;28;20417;-72
2021/04/03 08:48:38;;;;;;;10.00;7.40;;;13.20;72.30;;;;;;5079181;28;20181;-71
2021/04/03 08:51:06;;;;;;;11.47;6.30;;;13.10;73.40;;;;;;5072910;28;20419;-76
2021/04/03 08:53:49;;;;;;;7.93;4.97;;;13.00;74.80;;;;;;5071923;28;20426;-71
2021/04/03 08:56:36;;;;;;;10.40;5.03;;;12.80;75.10;;;;;;5064773;28;20542;-70
2021/04/03 08:59:12;;;;;;;10.17;5.20;;;12.70;73.80;;;;;;5074090;28;20426;-70
2021/04/03 09:01:46;;;;;;;7.83;4.90;;;12.60;74.60;;;;;;5073371;28;20496;-71
2021/04/03 09:04:12;;;;;;;10.30;5.80;;;12.50;73.60;;;;;;5072426;28;20761;-71
2021/04/03 09:06:44;;;;;;;10.83;5.40;;;12.40;73.60;;;;;;5072584;28;20465;-71
2021/04/03 09:09:11;;;;;;;11.87;7.00;;;12.40;72.60;;;;;;5072730;28;20415;-72
2021/04/03 09:11:38;;;;;;;8.43;5.27;;;12.30;75.10;;;;;;5073061;28;20853;-70
2021/04/03 09:14:04;;;;;;;11.67;5.77;;;12.30;75.70;;;;;;5072447;28;20419;-70
2021/04/03 09:16:38;;;;;;;14.37;5.90;;;12.30;76.20;;;;;;5071586;28;20694;-70
2021/04/03 09:19:04;;;;;;;13.00;6.47;;;12.30;76.00;;;;;;5071187;28;20940;-71
2021/04/03 09:21:31;;;;;;;10.00;6.20;;;12.20;76.60;;;;;;5072061;28;21026;-70
2021/04/03 09:23:57;;;;;;;9.67;5.77;;;12.20;77.60;;;;;;5072482;28;20433;-70
2021/04/03 09:26:36;;;;;;;36.50;26.20;;;12.10;80.00;;;;;;5090871;28;20468;-71
2021/04/03 09:29:11;;;;;;;34.53;17.80;;;12.30;83.10;;;;;;5052955;28;20484;-72
2021/04/03 09:31:39;;;;;;;10.83;7.13;;;12.40;82.40;;;;;;5052548;28;20423;-71
2021/04/03 09:34:05;;;;;;;11.63;5.93;;;12.60;83.30;;;;;;5069925;28;20462;-71
2021/04/03 09:36:45;;;;;;;14.43;5.30;;;12.70;78.80;;;;;;5071421;28;21003;-71
2021/04/03 09:39:15;;;;;;;11.40;5.67;;;13.00;83.30;;;;;;5071871;28;20178;-73
2021/04/03 09:41:54;;;;;;;10.03;6.03;;;13.10;79.80;;;;;;5071632;28;20408;-72
2021/04/03 09:44:20;;;;;;;11.77;6.43;;;13.30;77.90;;;;;;5070714;28;20400;-71
2021/04/03 09:46:48;;;;;;;12.17;6.83;;;13.50;79.40;;;;;;5072433;28;20865;-71
2021/04/03 09:49:14;;;;;;;13.17;7.67;;;13.80;79.70;;;;;;5071563;28;20264;-73
2021/04/03 09:51:40;;;;;;;14.83;8.23;;;13.80;75.40;;;;;;5071872;28;20514;-72
2021/04/03 09:54:06;;;;;;;14.70;7.30;;;13.70;76.70;;;;;;5071550;28;20436;-71
2021/04/03 09:56:32;;;;;;;10.90;7.30;;;14.10;78.00;;;;;;5070830;28;20622;-72
2021/04/03 09:58:59;;;;;;;13.57;7.77;;;14.40;74.60;;;;;;5067661;28;20186;-72
2021/04/03 10:01:25;;;;;;;12.87;8.20;;;14.50;75.40;;;;;;5070984;28;20434;-72
2021/04/03 10:03:53;;;;;;;9.67;5.63;;;14.80;77.80;;;;;;5069089;28;20465;-72
2021/04/03 10:06:19;;;;;;;12.30;6.57;;;15.10;73.20;;;;;;5071608;28;20453;-72
2021/04/03 10:08:45;;;;;;;10.13;6.83;;;15.10;70.30;;;;;;5072054;28;20464;-72
2021/04/03 10:11:11;;;;;;;9.37;6.60;;;15.00;70.90;;;;;;5071826;28;20837;-74
2021/04/03 10:13:37;;;;;;;13.07;6.97;;;14.80;70.60;;;;;;5071531;28;20176;-72
2021/04/03 10:16:03;;;;;;;12.23;7.53;;;14.80;71.10;;;;;;5071838;28;20218;-72
2021/04/03 10:18:29;;;;;;;10.97;7.50;;;14.60;71.80;;;;;;5070838;28;20445;-72
2021/04/03 10:20:55;;;;;;;12.30;8.07;;;14.60;71.40;;;;;;5071297;28;20406;-72
2021/04/03 10:23:21;;;;;;;17.60;9.33;;;14.60;73.30;;;;;;5071386;28;20518;-71
2021/04/03 10:25:47;;;;;;;17.37;10.80;;;14.50;70.00;;;;;;5070341;28;20429;-72
2021/04/03 10:28:13;;;;;;;16.93;10.40;;;14.30;71.70;;;;;;5069507;28;20194;-71
2021/04/03 10:30:38;;;;;;;13.53;9.40;;;14.00;72.50;;;;;;5070300;28;20417;-71
2021/04/03 10:33:05;;;;;;;14.60;10.57;;;13.90;73.30;;;;;;5070685;28;20225;-71
2021/04/03 10:35:31;;;;;;;18.70;11.77;;;13.90;75.80;;;;;;5070038;28;20276;-71
2021/04/03 10:37:56;;;;;;;16.40;11.20;;;13.90;72.60;;;;;;5068883;28;20943;-71
2021/04/03 10:40:22;;;;;;;19.23;12.18;;;13.80;73.20;;;;;;5068689;28;20414;-70
2021/04/03 10:42:48;;;;;;;18.93;10.97;;;13.80;71.20;;;;;;5070273;28;20182;-71
2021/04/03 10:45:14;;;;;;;16.67;11.57;;;13.90;70.30;;;;;;5069784;28;20420;-73
2021/04/03 10:47:40;;;;;;;125.80;76.07;;;13.90;72.90;;;;;;5070002;28;20192;-72
2021/04/03 10:50:06;;;;;;;57.60;35.97;;;13.80;73.30;;;;;;5068173;28;20422;-71
2021/04/03 10:52:32;;;;;;;26.90;17.77;;;13.70;72.60;;;;;;5068535;28;20419;-71
2021/04/03 10:54:58;;;;;;;13.43;11.20;;;13.60;72.00;;;;;;5069660;28;20450;-71
2021/04/03 10:57:24;;;;;;;19.33;10.43;;;13.60;73.30;;;;;;5069675;28;20899;-71
2021/04/03 10:59:51;;;;;;;16.40;11.77;;;13.70;73.00;;;;;;5074291;28;20173;-71
2021/04/03 11:02:17;;;;;;;15.53;11.17;;;13.60;72.50;;;;;;5069793;28;20186;-71
2021/04/03 11:04:43;;;;;;;14.00;10.40;;;13.60;72.10;;;;;;5071280;28;20824;-71
2021/04/03 11:07:09;;;;;;;17.60;9.83;;;13.60;72.90;;;;;;5091066;28;20408;-71
2021/04/03 11:09:34;;;;;;;79.00;52.80;;;13.60;74.40;;;;;;5080083;28;20423;-74
2021/04/03 11:12:00;;;;;;;33.03;24.13;;;13.60;75.50;;;;;;5085712;28;20891;-71
2021/04/03 11:14:26;;;;;;;151.40;91.87;;;13.80;75.70;;;;;;5080679;28;20211;-71
2021/04/03 11:16:52;;;;;;;34.37;22.50;;;14.10;76.20;;;;;;5072922;28;20284;-71
2021/04/03 11:19:17;;;;;;;14.73;9.90;;;14.40;72.60;;;;;;5072732;28;20270;-72
2021/04/03 11:21:43;;;;;;;13.50;10.60;;;14.60;69.40;;;;;;5073605;28;20184;-71
2021/04/03 11:24:10;;;;;;;11.97;10.50;;;14.60;70.50;;;;;;5073384;28;20192;-71
2021/04/03 11:26:36;;;;;;;17.47;10.67;;;14.60;70.00;;;;;;5073475;28;20199;-71
2021/04/03 11:29:01;;;;;;;11.87;10.03;;;14.50;72.40;;;;;;5072885;28;20742;-70
2021/04/03 11:31:28;;;;;;;12.67;10.50;;;14.50;73.00;;;;;;5072944;28;20409;-70
2021/04/03 11:33:54;;;;;;;15.97;10.30;;;14.60;72.30;;;;;;5073295;28;20224;-71
2021/04/03 11:36:20;;;;;;;13.53;9.97;;;15.00;74.00;;;;;;5072928;28;20515;-72
2021/04/03 11:38:46;;;;;;;11.87;10.40;;;15.20;70.00;;;;;;5073661;28;20415;-71
2021/04/03 11:41:12;;;;;;;11.90;10.33;;;15.20;70.30;;;;;;5073216;28;20828;-72
2021/04/03 11:43:40;;;;;;;12.27;10.67;;;15.40;68.20;;;;;;5072159;28;20404;-71
2021/04/03 11:46:10;;;;;;;13.23;10.23;;;15.70;68.40;;;;;;5072453;28;20776;-71
2021/04/03 11:48:36;;;;;;;14.90;10.10;;;15.70;71.50;;;;;;5072839;28;21358;-71
2021/04/03 11:51:02;;;;;;;12.93;10.33;;;15.80;70.20;;;;;;5073173;28;20426;-71
2021/04/03 11:53:28;;;;;;;14.17;9.17;;;16.00;66.90;;;;;;5071064;28;20194;-72
2021/04/03 11:55:53;;;;;;;14.93;10.43;;;16.10;68.60;;;;;;5073066;28;21045;-72
2021/04/03 11:58:19;;;;;;;11.30;9.10;;;16.30;66.20;;;;;;5072294;28;20418;-71
2021/04/03 12:00:45;;;;;;;12.40;9.37;;;16.30;67.20;;;;;;5073704;28;20202;-71
2021/04/03 12:03:11;;;;;;;11.03;8.93;;;16.30;61.70;;;;;;5073484;28;20645;-71
2021/04/03 12:05:36;;;;;;;11.20;10.10;;;16.30;65.30;;;;;;5073158;28;20443;-71
2021/04/03 12:08:02;;;;;;;13.43;11.20;;;16.10;66.00;;;;;;5073480;28;20179;-71
2021/04/03 12:10:28;;;;;;;12.40;10.07;;;15.90;67.60;;;;;;5072866;28;20187;-71
2021/04/03 12:12:54;;;;;;;10.30;8.53;;;16.00;65.50;;;;;;5073621;28;20195;-71
2021/04/03 12:15:19;;;;;;;11.50;9.87;;;16.10;65.90;;;;;;5072613;28;20663;-71
2021/04/03 12:17:46;;;;;;;8.93;8.03;;;16.30;67.00;;;;;;5073300;28;20187;-71
2021/04/03 12:20:16;;;;;;;10.03;9.00;;;16.50;61.10;;;;;;5072571;28;20180;-71
2021/04/03 12:22:46;;;;;;;10.77;8.40;;;16.60;63.00;;;;;;5073099;28;20397;-71
2021/04/03 12:25:12;;;;;;;10.67;7.97;;;16.70;61.60;;;;;;5072433;28;20477;-71
2021/04/03 12:27:38;;;;;;;10.13;8.23;;;16.70;60.30;;;;;;5053348;28;20411;-71
2021/04/03 12:30:05;;;;;;;10.70;7.90;;;16.70;61.20;;;;;;5054431;28;20967;-71
2021/04/03 12:32:31;;;;;;;9.57;8.40;;;16.60;62.20;;;;;;5053801;28;20250;-71
2021/04/03 12:34:57;;;;;;;10.60;7.67;;;16.40;59.80;;;;;;5054557;28;20467;-71
2021/04/03 12:37:22;;;;;;;10.43;8.57;;;16.30;58.50;;;;;;5053633;28;20403;-71
2021/04/03 12:39:49;;;;;;;11.90;8.70;;;16.30;58.10;;;;;;5086551;28;20410;-71
2021/04/03 12:42:14;;;;;;;10.20;9.03;;;16.40;61.80;;;;;;5053618;28;20560;-71
2021/04/03 12:44:40;;;;;;;9.20;8.30;;;16.40;61.10;;;;;;5054221;28;20961;-71
2021/04/03 12:47:06;;;;;;;10.17;7.80;;;16.50;61.60;;;;;;5054343;28;20181;-70
2021/04/03 12:49:32;;;;;;;9.40;7.37;;;16.50;59.10;;;;;;5053252;28;20217;-71